메인 페이지
METAR-TAF:

METAR-TAF

공항 :

로럴, 미시시피, 미국

위도: 31-40-23N, 경도: 089-10-22W, 고도: 73m

현재 날씨관측

예보는 14분 전, 17:15시(UTC)에 발표되었습니다.
북동5kt
온도 18°C
습도 100%
기압 1025 hPa
고도 700ft 상공 구름 많음
고도 1300ft 상공 흐림

METAR: KLUL 171715Z AUTO 04005KT BKN007 OVC013 18/18 A3026 RMK AO2 T01800180

시각: 12:29 (17:29 UTC)


TAF: 누락

4,000개 이상의 공항 관측 자료 및 예보 (METAR 및 TAF 보고).

지도상에서 검색 가능한 기상관측소가 노란 점과 빨간 점으로 표시되어 있습니다.

기상관측소 명을 보려면 표시 위로 마우스를 이동하세요.

날씨 관측과 예보를 보려면 클릭하세요.

지도 변경 : 확대하려면 엑스 표시가 있는 녹색 버튼, 축소하려면 빼기 표시가 있는 녹색 버튼, 다음 페이지의 지도를 보려면 녹색 화살표를 클릭하세요.


METAR-TAF: